SBI7520 ZJSY-VNKT
Flight info
| Callsign | SBI7520 |
|---|---|
| Flight time | N/A |
| Altitude | 37100 |
| Route | ZJSY N0440F360 KAG2YD KAGUK DCT ASSAD A206 LPB B465 CTG B594 ONEKA G463 RAJ A201 TEBID G463 BIKIK A201 MONDA G463 UXAGA R581 ROMEO GURAS CL02 LOC11 75LOC 45LOC KTM RW02 VNKT |
| Aircraft | B738/M-SDGIWZ/S |
Departure
| Time | 2026-04-28 10:31 |
|---|---|
| Airport | Sanya Phoenix International Airport (ZJSY) |
Arrival
| Time | N/A |
|---|---|
| Airport | Tribhuvan International Airport (VNKT) |
| Time | Latitude | Longitude | Altitude | Speed | Heading |
|---|---|---|---|---|---|
| 2026-04-28 10:21 | 18.30514 | 109.41080 | 100 ft | 0 kts | 83° |
| 2026-04-28 10:27 | 18.30515 | 109.41084 | 100 ft | 2 kts | 83° |
| 2026-04-28 10:27 | 18.30514 | 109.41127 | 100 ft | 7 kts | 120° |
| 2026-04-28 10:27 | 18.30458 | 109.41125 | 100 ft | 11 kts | 245° |
| 2026-04-28 10:28 | 18.30443 | 109.41022 | 100 ft | 16 kts | 261° |
| 2026-04-28 10:28 | 18.30423 | 109.40868 | 100 ft | 24 kts | 262° |
| 2026-04-28 10:28 | 18.30397 | 109.40672 | 100 ft | 27 kts | 262° |
| 2026-04-28 10:29 | 18.30347 | 109.40287 | 100 ft | 25 kts | 262° |
| 2026-04-28 10:29 | 18.30323 | 109.40105 | 100 ft | 24 kts | 262° |
| 2026-04-28 10:29 | 18.30301 | 109.39937 | 100 ft | 22 kts | 262° |
| 2026-04-28 10:29 | 18.30280 | 109.39780 | 100 ft | 21 kts | 262° |
| 2026-04-28 10:30 | 18.30239 | 109.39651 | 100 ft | 16 kts | 219° |
| 2026-04-28 10:30 | 18.30136 | 109.39633 | 100 ft | 14 kts | 173° |
| 2026-04-28 10:30 | 18.30104 | 109.39759 | 100 ft | 39 kts | 82° |
| 2026-04-28 10:30 | 18.30178 | 109.40321 | 100 ft | 111 kts | 82° |
| 2026-04-28 10:31 | 18.30309 | 109.41328 | 102 ft | 166 kts | 83° |
| 2026-04-28 10:31 | 18.30488 | 109.42657 | 297 ft | 196 kts | 82° |
| 2026-04-28 10:31 | 18.30697 | 109.44132 | 724 ft | 217 kts | 82° |
| 2026-04-28 10:31 | 18.31173 | 109.45640 | 1611 ft | 218 kts | 56° |
| 2026-04-28 10:32 | 18.32349 | 109.46609 | 2187 ft | 229 kts | 20° |
| 2026-04-28 10:32 | 18.33969 | 109.46597 | 2627 ft | 245 kts | 341° |
| 2026-04-28 10:32 | 18.35303 | 109.45486 | 3227 ft | 253 kts | 303° |
| 2026-04-28 10:32 | 18.35788 | 109.43721 | 3803 ft | 255 kts | 265° |
| 2026-04-28 10:33 | 18.35235 | 109.41972 | 4271 ft | 261 kts | 232° |
| 2026-04-28 10:33 | 18.34050 | 109.40488 | 4821 ft | 273 kts | 229° |
| 2026-04-28 10:33 | 18.33185 | 109.38703 | 5476 ft | 287 kts | 257° |
| 2026-04-28 10:33 | 18.33073 | 109.36592 | 6260 ft | 290 kts | 271° |
| 2026-04-28 10:34 | 18.33120 | 109.34462 | 6994 ft | 296 kts | 269° |
| 2026-04-28 10:34 | 18.33130 | 109.32275 | 7619 ft | 303 kts | 268° |
| 2026-04-28 10:34 | 18.33145 | 109.30049 | 8346 ft | 308 kts | 270° |
| 2026-04-28 10:34 | 18.33172 | 109.27790 | 9037 ft | 313 kts | 270° |
| 2026-04-28 10:35 | 18.33198 | 109.25500 | 9764 ft | 315 kts | 269° |
| 2026-04-28 10:35 | 18.33222 | 109.23171 | 10279 ft | 326 kts | 269° |
| 2026-04-28 10:35 | 18.33245 | 109.20715 | 10341 ft | 349 kts | 269° |
| 2026-04-28 10:35 | 18.33272 | 109.18081 | 10515 ft | 368 kts | 269° |
| 2026-04-28 10:36 | 18.33299 | 109.15353 | 10802 ft | 380 kts | 269° |
| 2026-04-28 10:36 | 18.33328 | 109.12539 | 11290 ft | 387 kts | 269° |
| 2026-04-28 10:36 | 18.33357 | 109.09713 | 11787 ft | 391 kts | 269° |
| 2026-04-28 10:36 | 18.33386 | 109.06853 | 12340 ft | 394 kts | 270° |
| 2026-04-28 10:37 | 18.33415 | 109.03960 | 12860 ft | 398 kts | 270° |
| 2026-04-28 10:37 | 18.33443 | 109.01050 | 13377 ft | 401 kts | 270° |
| 2026-04-28 10:37 | 18.33471 | 108.98116 | 13878 ft | 404 kts | 270° |
| 2026-04-28 10:37 | 18.33498 | 108.95157 | 14368 ft | 406 kts | 270° |
| 2026-04-28 10:38 | 18.33526 | 108.92161 | 14866 ft | 408 kts | 270° |
| 2026-04-28 10:38 | 18.33553 | 108.89181 | 15337 ft | 411 kts | 270° |
| 2026-04-28 10:38 | 18.33579 | 108.86163 | 15799 ft | 413 kts | 270° |
| 2026-04-28 10:38 | 18.33605 | 108.83141 | 16249 ft | 415 kts | 270° |
| 2026-04-28 10:39 | 18.33631 | 108.80093 | 16685 ft | 417 kts | 270° |
| 2026-04-28 10:39 | 18.33657 | 108.77066 | 17083 ft | 420 kts | 270° |
| 2026-04-28 10:39 | 18.33682 | 108.73994 | 17542 ft | 421 kts | 270° |
| 2026-04-28 10:39 | 18.33707 | 108.70885 | 17957 ft | 423 kts | 270° |
| 2026-04-28 10:40 | 18.33732 | 108.67821 | 18349 ft | 424 kts | 270° |
| 2026-04-28 10:40 | 18.33755 | 108.64727 | 18735 ft | 426 kts | 271° |
| 2026-04-28 10:40 | 18.33779 | 108.61594 | 19108 ft | 428 kts | 271° |
| 2026-04-28 10:40 | 18.33805 | 108.58445 | 19473 ft | 430 kts | 271° |
| 2026-04-28 10:41 | 18.33830 | 108.55306 | 19825 ft | 432 kts | 271° |
| 2026-04-28 10:41 | 18.33854 | 108.52171 | 20166 ft | 433 kts | 271° |
| 2026-04-28 10:41 | 18.33877 | 108.48981 | 20501 ft | 435 kts | 271° |
| 2026-04-28 10:41 | 18.33900 | 108.45815 | 20826 ft | 437 kts | 271° |
| 2026-04-28 10:42 | 18.33921 | 108.42622 | 21142 ft | 439 kts | 271° |
| 2026-04-28 10:42 | 18.33943 | 108.39384 | 21455 ft | 440 kts | 271° |
| 2026-04-28 10:42 | 18.33964 | 108.36161 | 21758 ft | 442 kts | 271° |
| 2026-04-28 10:42 | 18.33984 | 108.32955 | 22045 ft | 443 kts | 270° |
| 2026-04-28 10:43 | 18.34004 | 108.29697 | 22322 ft | 445 kts | 270° |
| 2026-04-28 10:43 | 18.34024 | 108.26467 | 22595 ft | 446 kts | 270° |
| 2026-04-28 10:43 | 18.34042 | 108.23180 | 22860 ft | 448 kts | 271° |
| 2026-04-28 10:43 | 18.34061 | 108.19906 | 23121 ft | 449 kts | 271° |
| 2026-04-28 10:44 | 18.34078 | 108.16643 | 23371 ft | 451 kts | 271° |
| 2026-04-28 10:44 | 18.34096 | 108.13350 | 23618 ft | 452 kts | 271° |
| 2026-04-28 10:44 | 18.34113 | 108.10013 | 23862 ft | 453 kts | 271° |
| 2026-04-28 10:44 | 18.34129 | 108.06702 | 24096 ft | 454 kts | 271° |
| 2026-04-28 10:45 | 18.34145 | 108.03379 | 24326 ft | 456 kts | 271° |
| 2026-04-28 10:45 | 18.34160 | 108.00044 | 24551 ft | 457 kts | 271° |
| 2026-04-28 10:45 | 18.34175 | 107.96698 | 24769 ft | 458 kts | 271° |
| 2026-04-28 10:45 | 18.34189 | 107.93353 | 24984 ft | 459 kts | 271° |
| 2026-04-28 10:46 | 18.34203 | 107.90017 | 25192 ft | 461 kts | 271° |
| 2026-04-28 10:46 | 18.34216 | 107.86631 | 25396 ft | 462 kts | 271° |
| 2026-04-28 10:46 | 18.34228 | 107.83278 | 25596 ft | 463 kts | 271° |
| 2026-04-28 10:46 | 18.34240 | 107.79863 | 25792 ft | 464 kts | 271° |
| 2026-04-28 10:47 | 18.34251 | 107.76501 | 25981 ft | 465 kts | 271° |
| 2026-04-28 10:47 | 18.34258 | 107.73071 | 26169 ft | 466 kts | 270° |
| 2026-04-28 10:47 | 18.34276 | 107.69704 | 26344 ft | 467 kts | 273° |
| 2026-04-28 10:47 | 18.34632 | 107.66312 | 26495 ft | 467 kts | 282° |
| 2026-04-28 10:48 | 18.35287 | 107.62970 | 26713 ft | 467 kts | 283° |
| 2026-04-28 10:48 | 18.35963 | 107.59634 | 26868 ft | 468 kts | 283° |
| 2026-04-28 10:48 | 18.36612 | 107.56264 | 27023 ft | 470 kts | 283° |
| 2026-04-28 10:48 | 18.37258 | 107.52890 | 27193 ft | 470 kts | 283° |
| 2026-04-28 10:49 | 18.37909 | 107.49545 | 27344 ft | 471 kts | 283° |
| 2026-04-28 10:49 | 18.38570 | 107.46178 | 27499 ft | 472 kts | 283° |
| 2026-04-28 10:49 | 18.39237 | 107.42790 | 27649 ft | 473 kts | 283° |
| 2026-04-28 10:49 | 18.39903 | 107.39409 | 27795 ft | 474 kts | 283° |
| 2026-04-28 10:50 | 18.40576 | 107.35988 | 27938 ft | 475 kts | 283° |
| 2026-04-28 10:50 | 18.41247 | 107.32584 | 28073 ft | 476 kts | 283° |
| 2026-04-28 10:50 | 18.41918 | 107.29183 | 28199 ft | 476 kts | 283° |
| 2026-04-28 10:50 | 18.42588 | 107.25784 | 28327 ft | 477 kts | 283° |
| 2026-04-28 10:51 | 18.43255 | 107.22394 | 28448 ft | 478 kts | 283° |
| 2026-04-28 10:51 | 18.43931 | 107.18961 | 28569 ft | 478 kts | 283° |
| 2026-04-28 10:51 | 18.44608 | 107.15520 | 28687 ft | 479 kts | 283° |
| 2026-04-28 10:51 | 18.45278 | 107.12110 | 28800 ft | 480 kts | 283° |
| 2026-04-28 10:52 | 18.45954 | 107.08669 | 28912 ft | 480 kts | 283° |
| 2026-04-28 10:52 | 18.46634 | 107.05204 | 29020 ft | 481 kts | 283° |
| 2026-04-28 10:52 | 18.47301 | 107.01800 | 29103 ft | 482 kts | 283° |
| 2026-04-28 10:53 | 18.48656 | 106.94865 | 29201 ft | 486 kts | 283° |
| 2026-04-28 10:53 | 18.50026 | 106.87843 | 29301 ft | 490 kts | 283° |
| 2026-04-28 10:54 | 18.51397 | 106.80804 | 29412 ft | 494 kts | 283° |
| 2026-04-28 10:54 | 18.52774 | 106.73713 | 29691 ft | 493 kts | 283° |
| 2026-04-28 10:54 | 18.53459 | 106.70183 | 29807 ft | 494 kts | 283° |
| 2026-04-28 10:55 | 18.54138 | 106.66676 | 29935 ft | 493 kts | 283° |
| 2026-04-28 10:55 | 18.54825 | 106.63130 | 30081 ft | 493 kts | 283° |
| 2026-04-28 10:55 | 18.55503 | 106.59624 | 30204 ft | 493 kts | 283° |
| 2026-04-28 10:55 | 18.56194 | 106.56059 | 30339 ft | 493 kts | 283° |
| 2026-04-28 10:56 | 18.56881 | 106.52560 | 30478 ft | 492 kts | 283° |
| 2026-04-28 10:56 | 18.57580 | 106.49008 | 30617 ft | 492 kts | 283° |
| 2026-04-28 10:56 | 18.58261 | 106.45538 | 30752 ft | 491 kts | 283° |
| 2026-04-28 10:56 | 18.58957 | 106.41976 | 30891 ft | 491 kts | 283° |
| 2026-04-28 10:57 | 18.59640 | 106.38483 | 31025 ft | 490 kts | 283° |
| 2026-04-28 10:57 | 18.60322 | 106.34988 | 31158 ft | 490 kts | 283° |
| 2026-04-28 10:57 | 18.61009 | 106.31465 | 31273 ft | 489 kts | 283° |
| 2026-04-28 10:57 | 18.61694 | 106.27951 | 31387 ft | 489 kts | 283° |
| 2026-04-28 10:58 | 18.62375 | 106.24451 | 31500 ft | 489 kts | 283° |
| 2026-04-28 10:58 | 18.63051 | 106.20976 | 31608 ft | 488 kts | 283° |
| 2026-04-28 10:58 | 18.63735 | 106.17449 | 31718 ft | 488 kts | 283° |
| 2026-04-28 10:58 | 18.64410 | 106.13971 | 31823 ft | 488 kts | 283° |
| 2026-04-28 10:59 | 18.65083 | 106.10500 | 31928 ft | 488 kts | 283° |
| 2026-04-28 10:59 | 18.65765 | 106.06967 | 32033 ft | 487 kts | 283° |
| 2026-04-28 10:59 | 18.66431 | 106.03492 | 32138 ft | 487 kts | 283° |
| 2026-04-28 10:59 | 18.67102 | 105.99980 | 32244 ft | 487 kts | 283° |
| 2026-04-28 11:00 | 18.67766 | 105.96506 | 32348 ft | 486 kts | 283° |
| 2026-04-28 11:00 | 18.68433 | 105.93012 | 32451 ft | 486 kts | 283° |
| 2026-04-28 11:00 | 18.69092 | 105.89562 | 32552 ft | 486 kts | 283° |
| 2026-04-28 11:00 | 18.69762 | 105.86043 | 32653 ft | 485 kts | 283° |
| 2026-04-28 11:01 | 18.70419 | 105.82594 | 32752 ft | 485 kts | 283° |
| 2026-04-28 11:01 | 18.71743 | 105.75632 | 32947 ft | 485 kts | 283° |
| 2026-04-28 11:02 | 18.73092 | 105.68670 | 33138 ft | 484 kts | 284° |
| 2026-04-28 11:02 | 18.75118 | 105.61959 | 33329 ft | 481 kts | 292° |
| 2026-04-28 11:03 | 18.77408 | 105.55365 | 33496 ft | 481 kts | 291° |
| 2026-04-28 11:03 | 18.79653 | 105.48742 | 33679 ft | 480 kts | 291° |
| 2026-04-28 11:04 | 18.81911 | 105.42143 | 33848 ft | 480 kts | 292° |
| 2026-04-28 11:04 | 18.84178 | 105.35514 | 34042 ft | 479 kts | 292° |
| 2026-04-28 11:05 | 18.86427 | 105.28935 | 34180 ft | 478 kts | 291° |
| 2026-04-28 11:05 | 18.88670 | 105.22371 | 34333 ft | 478 kts | 291° |
| 2026-04-28 11:05 | 18.89791 | 105.19088 | 34452 ft | 476 kts | 291° |
| 2026-04-28 11:06 | 18.90908 | 105.15814 | 34562 ft | 475 kts | 291° |
| 2026-04-28 11:06 | 18.92029 | 105.12524 | 34666 ft | 474 kts | 291° |
| 2026-04-28 11:06 | 18.93143 | 105.09256 | 34793 ft | 472 kts | 290° |
| 2026-04-28 11:06 | 18.94248 | 105.06012 | 34931 ft | 470 kts | 290° |
| 2026-04-28 11:07 | 18.95346 | 105.02786 | 35059 ft | 468 kts | 290° |
| 2026-04-28 11:07 | 18.96441 | 104.99568 | 35198 ft | 466 kts | 289° |
| 2026-04-28 11:07 | 18.97533 | 104.96355 | 35325 ft | 464 kts | 289° |
| 2026-04-28 11:07 | 18.98613 | 104.93177 | 35448 ft | 462 kts | 289° |
| 2026-04-28 11:08 | 18.99697 | 104.89983 | 35565 ft | 460 kts | 289° |
| 2026-04-28 11:08 | 19.00767 | 104.86829 | 35672 ft | 459 kts | 289° |
| 2026-04-28 11:08 | 19.01835 | 104.83682 | 35787 ft | 457 kts | 289° |
| 2026-04-28 11:09 | 19.03969 | 104.77380 | 35803 ft | 457 kts | 289° |
| 2026-04-28 11:09 | 19.06110 | 104.71052 | 35804 ft | 456 kts | 289° |
| 2026-04-28 11:10 | 19.08230 | 104.64779 | 35803 ft | 456 kts | 289° |
| 2026-04-28 11:10 | 19.10362 | 104.58462 | 35804 ft | 456 kts | 289° |
| 2026-04-28 11:11 | 19.12478 | 104.52183 | 35804 ft | 456 kts | 289° |
| 2026-04-28 11:11 | 19.14608 | 104.45857 | 35804 ft | 456 kts | 289° |
| 2026-04-28 11:12 | 19.16723 | 104.39568 | 35804 ft | 456 kts | 289° |
| 2026-04-28 11:12 | 19.18836 | 104.33278 | 35804 ft | 456 kts | 289° |
| 2026-04-28 11:13 | 19.20948 | 104.26978 | 35804 ft | 456 kts | 289° |
| 2026-04-28 11:13 | 19.23064 | 104.20660 | 35804 ft | 456 kts | 289° |
| 2026-04-28 11:14 | 19.25179 | 104.14339 | 35802 ft | 456 kts | 289° |
| 2026-04-28 11:14 | 19.27292 | 104.08014 | 35788 ft | 456 kts | 289° |
| 2026-04-28 11:15 | 19.29388 | 104.01731 | 35773 ft | 456 kts | 289° |
| 2026-04-28 11:15 | 19.31496 | 103.95406 | 35759 ft | 455 kts | 289° |
| 2026-04-28 11:16 | 19.33582 | 103.89105 | 35750 ft | 455 kts | 288° |
| 2026-04-28 11:16 | 19.35643 | 103.82756 | 35750 ft | 456 kts | 288° |
| 2026-04-28 11:17 | 19.37694 | 103.76453 | 35750 ft | 456 kts | 288° |
| 2026-04-28 11:17 | 19.39753 | 103.70120 | 35750 ft | 456 kts | 288° |
| 2026-04-28 11:18 | 19.41803 | 103.63805 | 35750 ft | 456 kts | 288° |
| 2026-04-28 11:18 | 19.43889 | 103.57472 | 35750 ft | 456 kts | 289° |
| 2026-04-28 11:19 | 19.46057 | 103.51175 | 35750 ft | 456 kts | 289° |
| 2026-04-28 11:19 | 19.48207 | 103.44872 | 35750 ft | 456 kts | 289° |
| 2026-04-28 11:20 | 19.50350 | 103.38576 | 35750 ft | 456 kts | 289° |
| 2026-04-28 11:20 | 19.52495 | 103.32263 | 35750 ft | 456 kts | 289° |
| 2026-04-28 11:21 | 19.54632 | 103.25965 | 35750 ft | 456 kts | 289° |
| 2026-04-28 11:21 | 19.56763 | 103.19676 | 35750 ft | 456 kts | 289° |
| 2026-04-28 11:22 | 19.58901 | 103.13360 | 35750 ft | 457 kts | 289° |
| 2026-04-28 11:22 | 19.61047 | 103.07008 | 35750 ft | 460 kts | 289° |
| 2026-04-28 11:23 | 19.63210 | 103.00598 | 35750 ft | 462 kts | 290° |
| 2026-04-28 11:23 | 19.65359 | 102.94221 | 35750 ft | 464 kts | 290° |
| 2026-04-28 11:24 | 19.67538 | 102.87748 | 35749 ft | 464 kts | 290° |
| 2026-04-28 11:24 | 19.69700 | 102.81316 | 35749 ft | 463 kts | 290° |
| 2026-04-28 11:25 | 19.71841 | 102.74937 | 35750 ft | 463 kts | 290° |
| 2026-04-28 11:25 | 19.74003 | 102.68488 | 35750 ft | 463 kts | 290° |
| 2026-04-28 11:26 | 19.76153 | 102.62066 | 35750 ft | 463 kts | 290° |
| 2026-04-28 11:26 | 19.78301 | 102.55640 | 35750 ft | 463 kts | 290° |
| 2026-04-28 11:27 | 19.80438 | 102.49238 | 35750 ft | 463 kts | 290° |
| 2026-04-28 11:27 | 19.82589 | 102.42789 | 35750 ft | 463 kts | 290° |
| 2026-04-28 11:28 | 19.84736 | 102.36341 | 35750 ft | 463 kts | 290° |
| 2026-04-28 11:28 | 19.86863 | 102.29945 | 35749 ft | 463 kts | 290° |
| 2026-04-28 11:29 | 19.88999 | 102.23515 | 35750 ft | 462 kts | 290° |
| 2026-04-28 11:29 | 19.91339 | 102.17152 | 35750 ft | 462 kts | 297° |
| 2026-04-28 11:30 | 19.94443 | 102.11238 | 35750 ft | 462 kts | 300° |
| 2026-04-28 11:30 | 19.99155 | 102.02322 | 35750 ft | 462 kts | 300° |
| 2026-04-28 11:31 | 20.02321 | 101.96390 | 35749 ft | 462 kts | 300° |
| 2026-04-28 11:31 | 20.05467 | 101.90503 | 35750 ft | 462 kts | 300° |
| 2026-04-28 11:32 | 20.08629 | 101.84593 | 35750 ft | 462 kts | 301° |
| 2026-04-28 11:32 | 20.11813 | 101.78641 | 35750 ft | 462 kts | 300° |
| 2026-04-28 11:33 | 20.14972 | 101.72736 | 35750 ft | 462 kts | 301° |
| 2026-04-28 11:33 | 20.18144 | 101.66801 | 35753 ft | 462 kts | 301° |
| 2026-04-28 11:34 | 20.21305 | 101.60883 | 35764 ft | 461 kts | 301° |
| 2026-04-28 11:34 | 20.24454 | 101.54979 | 35784 ft | 461 kts | 301° |
| 2026-04-28 11:35 | 20.27619 | 101.49041 | 35808 ft | 461 kts | 301° |
| 2026-04-28 11:35 | 20.30778 | 101.43107 | 35825 ft | 461 kts | 301° |
| 2026-04-28 11:36 | 20.33924 | 101.37193 | 35830 ft | 462 kts | 301° |
| 2026-04-28 11:36 | 20.37093 | 101.31229 | 35831 ft | 461 kts | 300° |
| 2026-04-28 11:37 | 20.40237 | 101.25305 | 35831 ft | 461 kts | 300° |
| 2026-04-28 11:37 | 20.43380 | 101.19378 | 35831 ft | 461 kts | 300° |
| 2026-04-28 11:38 | 20.46524 | 101.13442 | 35831 ft | 461 kts | 300° |
| 2026-04-28 11:38 | 20.49679 | 101.07478 | 35831 ft | 461 kts | 300° |
| 2026-04-28 11:39 | 20.52808 | 101.01560 | 35831 ft | 461 kts | 300° |
| 2026-04-28 11:39 | 20.55950 | 100.95610 | 35831 ft | 459 kts | 300° |
| 2026-04-28 11:40 | 20.59067 | 100.89700 | 35830 ft | 456 kts | 299° |
| 2026-04-28 11:40 | 20.62140 | 100.83868 | 35831 ft | 452 kts | 299° |
| 2026-04-28 11:41 | 20.65205 | 100.78045 | 35830 ft | 449 kts | 299° |
| 2026-04-28 11:41 | 20.68250 | 100.72253 | 35831 ft | 449 kts | 299° |
| 2026-04-28 11:42 | 20.71317 | 100.66415 | 35831 ft | 450 kts | 299° |
| 2026-04-28 11:42 | 20.74364 | 100.60609 | 35831 ft | 450 kts | 299° |
| 2026-04-28 11:43 | 20.77409 | 100.54798 | 35831 ft | 450 kts | 299° |
| 2026-04-28 11:43 | 20.80411 | 100.48953 | 35830 ft | 450 kts | 296° |
| 2026-04-28 11:44 | 20.82608 | 100.42752 | 35841 ft | 449 kts | 285° |
| 2026-04-28 11:44 | 20.84355 | 100.36326 | 35846 ft | 449 kts | 287° |
| 2026-04-28 11:45 | 20.86146 | 100.29977 | 35848 ft | 449 kts | 286° |
| 2026-04-28 11:45 | 20.87908 | 100.23572 | 35849 ft | 449 kts | 286° |
| 2026-04-28 11:46 | 20.89654 | 100.17175 | 35851 ft | 449 kts | 285° |
| 2026-04-28 11:46 | 20.91391 | 100.10780 | 35855 ft | 449 kts | 285° |
| 2026-04-28 11:47 | 20.93123 | 100.04380 | 35858 ft | 449 kts | 285° |
| 2026-04-28 11:47 | 20.94854 | 99.97963 | 35858 ft | 449 kts | 285° |
| 2026-04-28 11:48 | 20.96578 | 99.91559 | 35858 ft | 449 kts | 285° |
| 2026-04-28 11:48 | 20.98297 | 99.85156 | 35858 ft | 449 kts | 285° |
| 2026-04-28 11:49 | 21.00019 | 99.78735 | 35858 ft | 450 kts | 285° |
| 2026-04-28 11:49 | 21.01727 | 99.72353 | 35858 ft | 450 kts | 285° |
| 2026-04-28 11:50 | 21.03451 | 99.65899 | 35858 ft | 449 kts | 285° |
| 2026-04-28 11:50 | 21.05157 | 99.59506 | 35858 ft | 448 kts | 284° |
| 2026-04-28 11:51 | 21.06857 | 99.53121 | 35858 ft | 447 kts | 284° |
| 2026-04-28 11:51 | 21.08553 | 99.46744 | 35857 ft | 446 kts | 284° |
| 2026-04-28 11:52 | 21.10242 | 99.40382 | 35857 ft | 444 kts | 284° |
| 2026-04-28 11:52 | 21.11927 | 99.34026 | 35858 ft | 442 kts | 283° |
| 2026-04-28 11:53 | 21.13592 | 99.27733 | 35858 ft | 441 kts | 283° |
| 2026-04-28 11:53 | 21.15253 | 99.21446 | 35858 ft | 441 kts | 283° |
| 2026-04-28 11:54 | 21.16921 | 99.15121 | 35858 ft | 442 kts | 283° |
| 2026-04-28 11:54 | 21.18587 | 99.08791 | 35857 ft | 442 kts | 283° |
| 2026-04-28 11:55 | 21.20249 | 99.02470 | 35858 ft | 442 kts | 284° |
| 2026-04-28 11:55 | 21.21912 | 98.96134 | 35858 ft | 442 kts | 284° |
| 2026-04-28 11:56 | 21.23571 | 98.89801 | 35858 ft | 442 kts | 284° |
| 2026-04-28 11:56 | 21.25221 | 98.83495 | 35858 ft | 443 kts | 285° |
| 2026-04-28 11:57 | 21.26881 | 98.77138 | 35858 ft | 443 kts | 285° |
| 2026-04-28 11:57 | 21.28537 | 98.70789 | 35858 ft | 443 kts | 285° |
| 2026-04-28 11:58 | 21.30180 | 98.64475 | 35858 ft | 442 kts | 285° |
| 2026-04-28 11:58 | 21.31823 | 98.58154 | 35858 ft | 442 kts | 285° |
| 2026-04-28 11:59 | 21.33476 | 98.51779 | 35858 ft | 442 kts | 285° |
| 2026-04-28 11:59 | 21.35115 | 98.45454 | 35858 ft | 443 kts | 285° |
| 2026-04-28 12:00 | 21.36756 | 98.39106 | 35857 ft | 443 kts | 285° |
| 2026-04-28 12:00 | 21.38398 | 98.32746 | 35836 ft | 443 kts | 284° |
| 2026-04-28 12:01 | 21.40034 | 98.26397 | 35815 ft | 443 kts | 284° |
| 2026-04-28 12:01 | 21.41665 | 98.20056 | 35793 ft | 443 kts | 284° |
| 2026-04-28 12:02 | 21.43305 | 98.13672 | 35778 ft | 443 kts | 284° |
| 2026-04-28 12:02 | 21.44932 | 98.07327 | 35786 ft | 443 kts | 284° |
| 2026-04-28 12:03 | 21.46556 | 98.00980 | 35794 ft | 443 kts | 284° |
| 2026-04-28 12:03 | 21.48185 | 97.94604 | 35801 ft | 443 kts | 284° |
| 2026-04-28 12:04 | 21.49806 | 97.88252 | 35803 ft | 443 kts | 284° |
| 2026-04-28 12:04 | 21.51427 | 97.81885 | 35804 ft | 443 kts | 284° |
| 2026-04-28 12:05 | 21.53042 | 97.75530 | 35804 ft | 443 kts | 284° |
| 2026-04-28 12:05 | 21.54649 | 97.69199 | 35803 ft | 443 kts | 284° |
| 2026-04-28 12:06 | 21.56268 | 97.62807 | 35804 ft | 443 kts | 284° |
| 2026-04-28 12:06 | 21.57873 | 97.56462 | 35804 ft | 443 kts | 284° |
| 2026-04-28 12:07 | 21.59486 | 97.50073 | 35803 ft | 443 kts | 284° |
| 2026-04-28 12:07 | 21.61087 | 97.43722 | 35803 ft | 442 kts | 284° |
| 2026-04-28 12:08 | 21.62691 | 97.37348 | 35804 ft | 442 kts | 284° |
| 2026-04-28 12:08 | 21.64293 | 97.30971 | 35804 ft | 442 kts | 284° |
| 2026-04-28 12:09 | 21.65882 | 97.24635 | 35804 ft | 442 kts | 284° |
| 2026-04-28 12:09 | 21.67484 | 97.18233 | 35804 ft | 442 kts | 284° |
| 2026-04-28 12:10 | 21.69070 | 97.11887 | 35804 ft | 441 kts | 284° |
| 2026-04-28 12:10 | 21.70650 | 97.05555 | 35804 ft | 440 kts | 283° |
| 2026-04-28 12:11 | 21.72229 | 96.99213 | 35804 ft | 439 kts | 283° |
| 2026-04-28 12:11 | 21.73798 | 96.92898 | 35803 ft | 437 kts | 283° |
| 2026-04-28 12:12 | 21.75363 | 96.86591 | 35804 ft | 438 kts | 283° |
| 2026-04-28 12:12 | 21.76928 | 96.80274 | 35804 ft | 438 kts | 283° |
| 2026-04-28 12:13 | 21.78482 | 96.73988 | 35804 ft | 438 kts | 283° |
| 2026-04-28 12:13 | 21.80040 | 96.67675 | 35803 ft | 438 kts | 283° |
| 2026-04-28 12:14 | 21.81605 | 96.61325 | 35804 ft | 438 kts | 283° |
| 2026-04-28 12:14 | 21.83153 | 96.55031 | 35804 ft | 438 kts | 283° |
| 2026-04-28 12:15 | 21.84709 | 96.48691 | 35804 ft | 438 kts | 283° |
| 2026-04-28 12:15 | 21.86254 | 96.42388 | 35804 ft | 438 kts | 283° |
| 2026-04-28 12:16 | 21.87775 | 96.36170 | 35804 ft | 438 kts | 283° |
| 2026-04-28 12:16 | 21.89321 | 96.29842 | 35804 ft | 438 kts | 283° |
| 2026-04-28 12:17 | 21.90091 | 96.26687 | 35915 ft | 436 kts | 283° |
| 2026-04-28 12:17 | 21.90860 | 96.23532 | 35912 ft | 438 kts | 283° |
| 2026-04-28 12:17 | 21.92402 | 96.17197 | 35911 ft | 438 kts | 283° |
| 2026-04-28 12:18 | 21.93553 | 96.10795 | 35913 ft | 435 kts | 274° |
| 2026-04-28 12:18 | 21.94102 | 96.04323 | 35912 ft | 435 kts | 274° |
| 2026-04-28 12:19 | 21.94715 | 95.97842 | 35912 ft | 435 kts | 274° |
| 2026-04-28 12:19 | 21.95293 | 95.91370 | 35912 ft | 435 kts | 274° |
| 2026-04-28 12:20 | 21.95863 | 95.84887 | 35912 ft | 435 kts | 274° |
| 2026-04-28 12:20 | 21.96422 | 95.78451 | 35912 ft | 435 kts | 274° |
| 2026-04-28 12:21 | 21.96978 | 95.71982 | 35912 ft | 435 kts | 274° |
| 2026-04-28 12:21 | 21.97534 | 95.65472 | 35912 ft | 435 kts | 274° |
| 2026-04-28 12:22 | 21.98082 | 95.59026 | 35912 ft | 434 kts | 274° |
| 2026-04-28 12:22 | 21.98629 | 95.52553 | 35912 ft | 435 kts | 274° |
| 2026-04-28 12:23 | 21.99173 | 95.46073 | 35912 ft | 435 kts | 274° |
| 2026-04-28 12:23 | 21.99711 | 95.39642 | 35912 ft | 435 kts | 274° |
| 2026-04-28 12:24 | 22.00251 | 95.33151 | 35912 ft | 435 kts | 273° |
| 2026-04-28 12:24 | 22.00789 | 95.26673 | 35912 ft | 435 kts | 273° |
| 2026-04-28 12:25 | 22.01322 | 95.20205 | 35912 ft | 435 kts | 273° |
| 2026-04-28 12:25 | 22.01852 | 95.13753 | 35912 ft | 435 kts | 273° |
| 2026-04-28 12:26 | 22.02381 | 95.07268 | 35912 ft | 435 kts | 273° |
| 2026-04-28 12:26 | 22.02907 | 95.00797 | 35912 ft | 435 kts | 273° |
| 2026-04-28 12:27 | 22.03429 | 94.94327 | 35912 ft | 435 kts | 273° |
| 2026-04-28 12:27 | 22.03954 | 94.87810 | 35912 ft | 436 kts | 273° |
| 2026-04-28 12:28 | 22.04472 | 94.81329 | 35912 ft | 437 kts | 273° |
| 2026-04-28 12:28 | 22.04991 | 94.74820 | 35888 ft | 437 kts | 273° |
| 2026-04-28 12:29 | 22.05764 | 94.65044 | 35833 ft | 437 kts | 273° |
| 2026-04-28 12:30 | 22.06277 | 94.58522 | 35796 ft | 437 kts | 273° |
| 2026-04-28 12:30 | 22.06786 | 94.52018 | 35777 ft | 436 kts | 273° |
| 2026-04-28 12:31 | 22.07290 | 94.45536 | 35777 ft | 437 kts | 273° |
| 2026-04-28 12:31 | 22.07796 | 94.39001 | 35777 ft | 437 kts | 273° |
| 2026-04-28 12:32 | 22.08297 | 94.32497 | 35777 ft | 437 kts | 272° |
| 2026-04-28 12:32 | 22.08796 | 94.25999 | 35777 ft | 437 kts | 272° |
| 2026-04-28 12:33 | 22.09293 | 94.19482 | 35777 ft | 437 kts | 272° |
| 2026-04-28 12:33 | 22.09786 | 94.12982 | 35777 ft | 437 kts | 272° |
| 2026-04-28 12:34 | 22.10280 | 94.06429 | 35776 ft | 437 kts | 272° |
| 2026-04-28 12:34 | 22.10768 | 93.99925 | 35777 ft | 437 kts | 272° |
| 2026-04-28 12:35 | 22.11255 | 93.93402 | 35777 ft | 437 kts | 272° |
| 2026-04-28 12:35 | 22.11735 | 93.86931 | 35776 ft | 437 kts | 272° |
| 2026-04-28 12:36 | 22.12216 | 93.80412 | 35777 ft | 436 kts | 272° |
| 2026-04-28 12:36 | 22.12696 | 93.73885 | 35777 ft | 436 kts | 272° |
| 2026-04-28 12:37 | 22.13171 | 93.67375 | 35777 ft | 436 kts | 272° |
| 2026-04-28 12:37 | 22.13641 | 93.60904 | 35777 ft | 436 kts | 272° |
| 2026-04-28 12:38 | 22.14112 | 93.54388 | 35777 ft | 436 kts | 272° |
| 2026-04-28 12:38 | 22.14581 | 93.47858 | 35777 ft | 436 kts | 272° |
| 2026-04-28 12:39 | 22.15045 | 93.41363 | 35777 ft | 436 kts | 272° |
| 2026-04-28 12:39 | 22.15507 | 93.34853 | 35777 ft | 436 kts | 272° |
| 2026-04-28 12:40 | 22.15967 | 93.28336 | 35776 ft | 436 kts | 272° |
| 2026-04-28 12:40 | 22.16424 | 93.21823 | 35777 ft | 436 kts | 272° |
| 2026-04-28 12:41 | 22.16880 | 93.15292 | 35777 ft | 436 kts | 272° |
| 2026-04-28 12:41 | 22.17331 | 93.08790 | 35776 ft | 436 kts | 272° |
| 2026-04-28 12:42 | 22.17778 | 93.02321 | 35777 ft | 435 kts | 272° |
| 2026-04-28 12:42 | 22.18223 | 92.95837 | 35777 ft | 433 kts | 272° |
| 2026-04-28 12:43 | 22.18663 | 92.89387 | 35777 ft | 431 kts | 272° |
| 2026-04-28 12:43 | 22.19099 | 92.82951 | 35777 ft | 430 kts | 272° |
| 2026-04-28 12:44 | 22.19532 | 92.76528 | 35777 ft | 431 kts | 272° |
| 2026-04-28 12:44 | 22.19963 | 92.70097 | 35777 ft | 431 kts | 272° |
| 2026-04-28 12:45 | 22.20390 | 92.63672 | 35777 ft | 431 kts | 272° |
| 2026-04-28 12:45 | 22.20784 | 92.57240 | 35777 ft | 431 kts | 271° |
| 2026-04-28 12:46 | 22.21174 | 92.50819 | 35777 ft | 431 kts | 271° |
| 2026-04-28 12:46 | 22.21563 | 92.44395 | 35777 ft | 431 kts | 271° |
| 2026-04-28 12:47 | 22.21953 | 92.37922 | 35777 ft | 431 kts | 271° |
| 2026-04-28 12:47 | 22.22338 | 92.31498 | 35776 ft | 430 kts | 271° |
| 2026-04-28 12:48 | 22.22729 | 92.25099 | 35776 ft | 430 kts | 272° |
| 2026-04-28 12:48 | 22.23208 | 92.18661 | 35777 ft | 430 kts | 272° |
| 2026-04-28 12:49 | 22.23676 | 92.12238 | 35777 ft | 430 kts | 272° |
| 2026-04-28 12:49 | 22.24139 | 92.05798 | 35777 ft | 430 kts | 272° |
| 2026-04-28 12:50 | 22.24599 | 91.99380 | 35777 ft | 430 kts | 272° |
| 2026-04-28 12:50 | 22.25054 | 91.92971 | 35777 ft | 430 kts | 272° |
| 2026-04-28 12:51 | 22.25969 | 91.86581 | 35776 ft | 434 kts | 285° |
| 2026-04-28 12:51 | 22.27109 | 91.83562 | 35777 ft | 438 kts | 296° |
| 2026-04-28 12:51 | 22.28751 | 91.80801 | 35778 ft | 441 kts | 305° |
| 2026-04-28 12:52 | 22.33093 | 91.76151 | 35779 ft | 447 kts | 319° |
| 2026-04-28 12:52 | 22.37888 | 91.71922 | 35777 ft | 446 kts | 317° |
| 2026-04-28 12:53 | 22.42633 | 91.67606 | 35776 ft | 446 kts | 317° |
| 2026-04-28 12:53 | 22.47389 | 91.63314 | 35777 ft | 446 kts | 317° |
| 2026-04-28 12:54 | 22.52135 | 91.59026 | 35777 ft | 446 kts | 317° |
| 2026-04-28 12:54 | 22.56885 | 91.54735 | 35777 ft | 446 kts | 317° |
| 2026-04-28 12:55 | 22.61644 | 91.50474 | 35777 ft | 446 kts | 318° |
| 2026-04-28 12:55 | 22.66420 | 91.46255 | 35777 ft | 446 kts | 318° |
| 2026-04-28 12:56 | 22.71229 | 91.41986 | 35776 ft | 446 kts | 318° |
| 2026-04-28 12:56 | 22.76012 | 91.37739 | 35777 ft | 446 kts | 318° |
| 2026-04-28 12:57 | 22.80769 | 91.33509 | 35776 ft | 446 kts | 318° |
| 2026-04-28 12:57 | 22.85563 | 91.29243 | 35777 ft | 446 kts | 318° |
| 2026-04-28 12:58 | 22.90288 | 91.24925 | 35774 ft | 446 kts | 316° |
| 2026-04-28 12:58 | 22.94979 | 91.20547 | 35766 ft | 445 kts | 317° |
| 2026-04-28 12:59 | 22.99646 | 91.16215 | 35757 ft | 444 kts | 317° |
| 2026-04-28 12:59 | 23.04308 | 91.11881 | 35750 ft | 441 kts | 317° |
| 2026-04-28 13:00 | 23.08964 | 91.07551 | 35750 ft | 439 kts | 317° |
| 2026-04-28 13:00 | 23.13550 | 91.03281 | 35750 ft | 438 kts | 317° |
| 2026-04-28 13:01 | 23.18175 | 90.98972 | 35750 ft | 436 kts | 317° |
| 2026-04-28 13:01 | 23.22808 | 90.94801 | 35749 ft | 436 kts | 318° |
| 2026-04-28 13:02 | 23.27475 | 90.90645 | 35744 ft | 435 kts | 318° |
| 2026-04-28 13:02 | 23.32131 | 90.86474 | 35740 ft | 435 kts | 318° |
| 2026-04-28 13:03 | 23.36817 | 90.82278 | 35735 ft | 435 kts | 318° |
| 2026-04-28 13:03 | 23.41480 | 90.78104 | 35730 ft | 435 kts | 318° |
| 2026-04-28 13:04 | 23.46140 | 90.73926 | 35725 ft | 435 kts | 318° |
| 2026-04-28 13:04 | 23.50775 | 90.69766 | 35723 ft | 435 kts | 318° |
| 2026-04-28 13:05 | 23.55444 | 90.65578 | 35723 ft | 435 kts | 318° |
| 2026-04-28 13:05 | 23.60083 | 90.61413 | 35723 ft | 435 kts | 318° |
| 2026-04-28 13:06 | 23.64771 | 90.57200 | 35723 ft | 435 kts | 318° |
| 2026-04-28 13:06 | 23.69415 | 90.53022 | 35723 ft | 435 kts | 318° |
| 2026-04-28 13:07 | 23.74074 | 90.48826 | 35723 ft | 435 kts | 318° |
| 2026-04-28 13:07 | 23.78703 | 90.44639 | 35722 ft | 435 kts | 316° |
| 2026-04-28 13:08 | 23.82602 | 90.39678 | 35723 ft | 429 kts | 298° |
| 2026-04-28 13:08 | 23.84851 | 90.33717 | 35723 ft | 426 kts | 287° |
| 2026-04-28 13:09 | 23.86867 | 90.27629 | 35722 ft | 427 kts | 288° |
| 2026-04-28 13:09 | 23.88893 | 90.21592 | 35722 ft | 426 kts | 288° |
| 2026-04-28 13:10 | 23.90907 | 90.15494 | 35723 ft | 426 kts | 288° |
| 2026-04-28 13:10 | 23.92910 | 90.09413 | 35723 ft | 426 kts | 288° |
| 2026-04-28 13:11 | 23.94905 | 90.03336 | 35723 ft | 426 kts | 288° |
| 2026-04-28 13:11 | 23.96898 | 89.97282 | 35722 ft | 426 kts | 289° |
| 2026-04-28 13:12 | 23.99092 | 89.91286 | 35723 ft | 426 kts | 290° |
| 2026-04-28 13:12 | 24.01285 | 89.85301 | 35723 ft | 426 kts | 290° |
| 2026-04-28 13:13 | 24.03472 | 89.79290 | 35723 ft | 426 kts | 290° |
| 2026-04-28 13:13 | 24.05653 | 89.73289 | 35723 ft | 426 kts | 290° |
| 2026-04-28 13:14 | 24.07831 | 89.67281 | 35722 ft | 426 kts | 290° |
| 2026-04-28 13:14 | 24.10008 | 89.61264 | 35722 ft | 426 kts | 290° |
| 2026-04-28 13:15 | 24.12181 | 89.55243 | 35723 ft | 426 kts | 289° |
| 2026-04-28 13:15 | 24.14262 | 89.49165 | 35723 ft | 426 kts | 288° |
| 2026-04-28 13:16 | 24.16316 | 89.43128 | 35723 ft | 426 kts | 289° |
| 2026-04-28 13:16 | 24.18378 | 89.37083 | 35723 ft | 426 kts | 289° |
| 2026-04-28 13:17 | 24.20444 | 89.31012 | 35723 ft | 426 kts | 288° |
| 2026-04-28 13:17 | 24.22507 | 89.24948 | 35722 ft | 426 kts | 288° |
| 2026-04-28 13:18 | 24.24562 | 89.18894 | 35723 ft | 426 kts | 288° |
| 2026-04-28 13:18 | 24.26625 | 89.12811 | 35723 ft | 426 kts | 288° |
| 2026-04-28 13:19 | 24.28675 | 89.06757 | 35723 ft | 426 kts | 288° |
| 2026-04-28 13:19 | 24.30733 | 89.00673 | 35722 ft | 426 kts | 288° |
| 2026-04-28 13:20 | 24.32779 | 88.94612 | 35723 ft | 425 kts | 289° |
| 2026-04-28 13:20 | 24.34825 | 88.88547 | 35723 ft | 425 kts | 289° |
| 2026-04-28 13:21 | 24.36862 | 88.82494 | 35723 ft | 425 kts | 289° |
| 2026-04-28 13:21 | 24.38898 | 88.76440 | 35716 ft | 425 kts | 289° |
| 2026-04-28 13:22 | 24.40938 | 88.70361 | 35703 ft | 425 kts | 289° |
| 2026-04-28 13:22 | 24.42967 | 88.64308 | 35702 ft | 424 kts | 289° |
| 2026-04-28 13:23 | 24.45136 | 88.58284 | 35679 ft | 426 kts | 294° |
| 2026-04-28 13:23 | 24.47690 | 88.52447 | 35669 ft | 425 kts | 294° |
| 2026-04-28 13:24 | 24.50165 | 88.46584 | 35669 ft | 425 kts | 293° |
| 2026-04-28 13:24 | 24.52652 | 88.40688 | 35669 ft | 425 kts | 293° |
| 2026-04-28 13:25 | 24.55119 | 88.34818 | 35669 ft | 425 kts | 293° |
| 2026-04-28 13:25 | 24.57582 | 88.28944 | 35668 ft | 425 kts | 293° |
| 2026-04-28 13:26 | 24.60049 | 88.23049 | 35668 ft | 425 kts | 293° |
| 2026-04-28 13:26 | 24.62513 | 88.17152 | 35669 ft | 425 kts | 293° |
| 2026-04-28 13:27 | 24.64968 | 88.11270 | 35669 ft | 425 kts | 293° |
| 2026-04-28 13:27 | 24.67427 | 88.05369 | 35669 ft | 425 kts | 293° |
| 2026-04-28 13:28 | 24.69867 | 87.99484 | 35669 ft | 425 kts | 293° |
| 2026-04-28 13:28 | 24.72303 | 87.93556 | 35669 ft | 425 kts | 293° |
| 2026-04-28 13:29 | 24.74719 | 87.87679 | 35669 ft | 425 kts | 293° |
| 2026-04-28 13:29 | 24.77154 | 87.81747 | 35668 ft | 425 kts | 293° |
| 2026-04-28 13:30 | 24.79611 | 87.75851 | 35668 ft | 425 kts | 294° |
| 2026-04-28 13:30 | 24.82120 | 87.69999 | 35668 ft | 425 kts | 294° |
| 2026-04-28 13:31 | 24.85878 | 87.61161 | 35668 ft | 425 kts | 294° |
| 2026-04-28 13:31 | 24.88370 | 87.55291 | 35664 ft | 425 kts | 294° |
| 2026-04-28 13:32 | 24.90868 | 87.49395 | 35654 ft | 425 kts | 294° |
| 2026-04-28 13:32 | 24.93367 | 87.43489 | 35640 ft | 425 kts | 294° |
| 2026-04-28 13:33 | 24.95841 | 87.37636 | 35621 ft | 425 kts | 294° |
| 2026-04-28 13:33 | 24.98332 | 87.31735 | 35614 ft | 424 kts | 293° |
| 2026-04-28 13:34 | 25.00809 | 87.25857 | 35614 ft | 422 kts | 293° |
| 2026-04-28 13:34 | 25.03263 | 87.20028 | 35615 ft | 420 kts | 293° |
| 2026-04-28 13:35 | 25.05704 | 87.14220 | 35615 ft | 419 kts | 293° |
| 2026-04-28 13:35 | 25.08149 | 87.08396 | 35615 ft | 417 kts | 293° |
| 2026-04-28 13:36 | 25.10555 | 87.02657 | 35614 ft | 414 kts | 293° |
| 2026-04-28 13:36 | 25.12968 | 86.96894 | 35614 ft | 412 kts | 292° |
| 2026-04-28 13:37 | 25.15358 | 86.91178 | 35615 ft | 411 kts | 292° |
| 2026-04-28 13:37 | 25.17742 | 86.85467 | 35615 ft | 411 kts | 292° |
| 2026-04-28 13:38 | 25.20121 | 86.79761 | 35615 ft | 411 kts | 292° |
| 2026-04-28 13:38 | 25.22505 | 86.74039 | 35615 ft | 411 kts | 292° |
| 2026-04-28 13:39 | 25.24890 | 86.68305 | 35615 ft | 411 kts | 292° |
| 2026-04-28 13:39 | 25.27258 | 86.62604 | 35615 ft | 411 kts | 292° |
| 2026-04-28 13:40 | 25.29646 | 86.56846 | 35615 ft | 411 kts | 292° |
| 2026-04-28 13:40 | 25.32016 | 86.51125 | 35615 ft | 411 kts | 292° |
| 2026-04-28 13:41 | 25.34646 | 86.45534 | 35614 ft | 414 kts | 302° |
| 2026-04-28 13:41 | 25.38670 | 86.40982 | 35618 ft | 422 kts | 320° |
| 2026-04-28 13:42 | 25.43469 | 86.37242 | 35615 ft | 423 kts | 321° |
| 2026-04-28 13:42 | 25.48231 | 86.33409 | 35614 ft | 423 kts | 320° |
| 2026-04-28 13:43 | 25.52966 | 86.29642 | 35614 ft | 422 kts | 320° |
| 2026-04-28 13:43 | 25.57735 | 86.25850 | 35615 ft | 422 kts | 320° |
| 2026-04-28 13:44 | 25.62457 | 86.22078 | 35614 ft | 422 kts | 320° |
| 2026-04-28 13:44 | 25.67208 | 86.18267 | 35615 ft | 422 kts | 320° |
| 2026-04-28 13:45 | 25.71958 | 86.14459 | 35614 ft | 422 kts | 320° |
| 2026-04-28 13:45 | 25.76690 | 86.10663 | 35614 ft | 422 kts | 320° |
| 2026-04-28 13:46 | 25.81430 | 86.06857 | 35614 ft | 422 kts | 320° |
| 2026-04-28 13:46 | 25.86152 | 86.03062 | 35615 ft | 422 kts | 320° |
| 2026-04-28 13:47 | 25.90893 | 85.99247 | 35614 ft | 422 kts | 320° |
| 2026-04-28 13:47 | 25.95646 | 85.95420 | 35614 ft | 422 kts | 320° |
| 2026-04-28 13:48 | 26.00352 | 85.91626 | 35614 ft | 422 kts | 320° |
| 2026-04-28 13:48 | 26.05088 | 85.87805 | 35614 ft | 422 kts | 320° |
| 2026-04-28 13:49 | 26.09822 | 85.83981 | 35614 ft | 422 kts | 320° |
| 2026-04-28 13:49 | 26.14579 | 85.80135 | 35615 ft | 422 kts | 320° |
| 2026-04-28 13:50 | 26.19318 | 85.76300 | 35614 ft | 422 kts | 320° |
| 2026-04-28 13:50 | 26.24034 | 85.72478 | 35615 ft | 422 kts | 320° |
| 2026-04-28 13:51 | 26.28751 | 85.68654 | 35614 ft | 422 kts | 320° |
| 2026-04-28 13:51 | 26.33472 | 85.64822 | 35615 ft | 422 kts | 320° |
| 2026-04-28 13:52 | 26.38241 | 85.60967 | 35614 ft | 422 kts | 320° |
| 2026-04-28 13:52 | 26.42959 | 85.57152 | 35614 ft | 422 kts | 320° |
| 2026-04-28 13:53 | 26.47673 | 85.53335 | 35614 ft | 421 kts | 320° |
| 2026-04-28 13:53 | 26.52421 | 85.49487 | 35615 ft | 421 kts | 320° |
| 2026-04-28 13:54 | 26.57150 | 85.45648 | 35621 ft | 421 kts | 320° |
| 2026-04-28 13:54 | 26.61853 | 85.41829 | 35715 ft | 420 kts | 320° |
| 2026-04-28 13:55 | 26.66569 | 85.37994 | 35789 ft | 421 kts | 320° |
| 2026-04-28 13:55 | 26.71309 | 85.34135 | 35861 ft | 421 kts | 320° |
| 2026-04-28 13:56 | 26.76037 | 85.30291 | 35885 ft | 422 kts | 320° |
| 2026-04-28 13:56 | 26.80781 | 85.26519 | 35885 ft | 421 kts | 321° |
| 2026-04-28 13:57 | 26.85536 | 85.22729 | 35885 ft | 421 kts | 321° |
| 2026-04-28 13:57 | 26.90689 | 85.19649 | 35884 ft | 429 kts | 337° |
| 2026-04-28 13:58 | 26.96631 | 85.18665 | 35885 ft | 443 kts | 356° |
| 2026-04-28 13:58 | 27.02738 | 85.20050 | 35828 ft | 460 kts | 18° |
| 2026-04-28 13:59 | 27.05538 | 85.21734 | 35324 ft | 462 kts | 29° |
| 2026-04-28 13:59 | 27.08114 | 85.23910 | 34787 ft | 464 kts | 38° |
| 2026-04-28 13:59 | 27.10255 | 85.26589 | 34223 ft | 467 kts | 54° |
| 2026-04-28 13:59 | 27.11796 | 85.29792 | 33659 ft | 467 kts | 65° |
| 2026-04-28 14:00 | 27.12929 | 85.33153 | 33080 ft | 466 kts | 70° |
| 2026-04-28 14:00 | 27.13926 | 85.36621 | 32501 ft | 463 kts | 70° |
| 2026-04-28 14:00 | 27.14924 | 85.40032 | 31929 ft | 461 kts | 69° |
| 2026-04-28 14:00 | 27.15935 | 85.43407 | 31360 ft | 458 kts | 69° |